首页
METAR-TAF:

METAR-TAF

机场 :

长沙, 中华人民共和国

长沙黄花国际机场

纬度: 28-11N, 经度: 113-13E, 海拔: 66米

当前天气观测

该预报发布于10分钟前的00:00 UTC
风速8节,风向北转西北
温度 8°C
湿度 87%
气压 1027 hPa
能見度: 2700
多云层高于1300英尺
轻雾

METAR: ZGHA 250000Z 33004MPS 2700 BR BKN013 08/06 Q1027 BECMG TL0050 3500 BKN020

时间: 08:10 (00:10 UTC)

预报

该预报发布于5小时和5分钟前的19:05 UTC
预报有效从25日的 00点(UTC)到 25日的 24点(UTC)
风速8节,风向
能見度: 4000
轻雾

TAF: ZGHA 241905Z 2500/2524 35004MPS 4000 BR NSC TX15/2506Z TN08/2522Z

超过4000个机场的气象观测和天气预报(METAR&TAF报告)。

可查询的气象台以黄色和红色小点在地图上表示。

将鼠标移到小点上方,可查看气象台名称。

然后点击查看天气观测和预报。

如需切换地图:点击带黑十字的绿色按钮放大地图;点击带横线的绿色按钮缩小地图;或者点击绿色箭头查看邻近地区的地图。


METAR-TAF: